sensor_id;sensor_type;location;lat;lon;timestamp;temperature;humidity
16578;DHT22;8401;52.528;13.340;2022-10-16T00:01:34;16.10;99.90
16578;DHT22;8401;52.528;13.340;2022-10-16T00:04:01;16.10;99.90
16578;DHT22;8401;52.528;13.340;2022-10-16T00:06:28;16.00;99.90
16578;DHT22;8401;52.528;13.340;2022-10-16T00:08:54;16.00;99.90
16578;DHT22;8401;52.528;13.340;2022-10-16T00:11:28;16.00;99.90
16578;DHT22;8401;52.528;13.340;2022-10-16T00:13:57;16.00;99.90
16578;DHT22;8401;52.528;13.340;2022-10-16T00:16:23;16.00;99.90
16578;DHT22;8401;52.528;13.340;2022-10-16T00:18:49;16.00;99.90
16578;DHT22;8401;52.528;13.340;2022-10-16T00:21:17;16.10;99.90
16578;DHT22;8401;52.528;13.340;2022-10-16T00:23:43;16.20;99.90
16578;DHT22;8401;52.528;13.340;2022-10-16T00:26:12;16.30;99.90
16578;DHT22;8401;52.528;13.340;2022-10-16T00:28:38;16.20;99.90
16578;DHT22;8401;52.528;13.340;2022-10-16T00:31:10;16.10;99.90
16578;DHT22;8401;52.528;13.340;2022-10-16T00:33:38;16.10;99.90
16578;DHT22;8401;52.528;13.340;2022-10-16T00:36:05;16.10;99.90
16578;DHT22;8401;52.528;13.340;2022-10-16T00:38:31;16.00;99.90
16578;DHT22;8401;52.528;13.340;2022-10-16T00:40:57;16.10;99.90
16578;DHT22;8401;52.528;13.340;2022-10-16T00:46:05;16.20;99.90
16578;DHT22;8401;52.528;13.340;2022-10-16T00:48:34;16.10;99.90
16578;DHT22;8401;52.528;13.340;2022-10-16T00:50:59;16.20;99.90
16578;DHT22;8401;52.528;13.340;2022-10-16T00:53:25;16.10;99.90
16578;DHT22;8401;52.528;13.340;2022-10-16T00:55:52;16.20;99.90
16578;DHT22;8401;52.528;13.340;2022-10-16T00:58:18;16.10;99.90
16578;DHT22;8401;52.528;13.340;2022-10-16T01:00:43;16.00;99.90
16578;DHT22;8401;52.528;13.340;2022-10-16T01:03:33;16.00;99.90
16578;DHT22;8401;52.528;13.340;2022-10-16T01:06:11;16.00;99.90
16578;DHT22;8401;52.528;13.340;2022-10-16T01:11:31;16.10;99.90
16578;DHT22;8401;52.528;13.340;2022-10-16T01:14:02;16.00;99.90
16578;DHT22;8401;52.528;13.340;2022-10-16T01:22:15;16.10;99.90
16578;DHT22;8401;52.528;13.340;2022-10-16T01:24:45;16.20;99.90
16578;DHT22;8401;52.528;13.340;2022-10-16T01:27:28;16.10;99.90
16578;DHT22;8401;52.528;13.340;2022-10-16T01:30:09;16.00;99.90
16578;DHT22;8401;52.528;13.340;2022-10-16T01:35:22;16.10;99.90
16578;DHT22;8401;52.528;13.340;2022-10-16T01:37:59;16.10;99.90
16578;DHT22;8401;52.528;13.340;2022-10-16T01:40:27;16.00;99.90
16578;DHT22;8401;52.528;13.340;2022-10-16T01:43:05;16.10;99.90
16578;DHT22;8401;52.528;13.340;2022-10-16T01:45:34;16.00;99.90
16578;DHT22;8401;52.528;13.340;2022-10-16T01:48:01;16.00;99.90
16578;DHT22;8401;52.528;13.340;2022-10-16T01:50:32;16.00;99.90
16578;DHT22;8401;52.528;13.340;2022-10-16T01:53:02;16.00;99.90
16578;DHT22;8401;52.528;13.340;2022-10-16T01:55:38;16.00;99.90
16578;DHT22;8401;52.528;13.340;2022-10-16T01:58:06;16.00;99.90
16578;DHT22;8401;52.528;13.340;2022-10-16T02:00:34;16.10;99.90
16578;DHT22;8401;52.528;13.340;2022-10-16T02:03:02;16.00;99.90
16578;DHT22;8401;52.528;13.340;2022-10-16T02:05:34;16.00;99.90
16578;DHT22;8401;52.528;13.340;2022-10-16T02:08:02;16.00;99.90
16578;DHT22;8401;52.528;13.340;2022-10-16T02:10:28;16.00;99.90
16578;DHT22;8401;52.528;13.340;2022-10-16T02:13:12;16.00;99.90
16578;DHT22;8401;52.528;13.340;2022-10-16T02:15:38;16.00;99.90
16578;DHT22;8401;52.528;13.340;2022-10-16T02:18:05;16.00;99.90
16578;DHT22;8401;52.528;13.340;2022-10-16T02:20:37;16.00;99.90
16578;DHT22;8401;52.528;13.340;2022-10-16T02:23:04;16.00;99.90
16578;DHT22;8401;52.528;13.340;2022-10-16T02:25:35;16.00;99.90
16578;DHT22;8401;52.528;13.340;2022-10-16T02:28:30;16.00;99.90
16578;DHT22;8401;52.528;13.340;2022-10-16T02:31:01;16.10;99.90
16578;DHT22;8401;52.528;13.340;2022-10-16T02:33:29;16.10;99.90
16578;DHT22;8401;52.528;13.340;2022-10-16T02:35:56;16.10;99.90
16578;DHT22;8401;52.528;13.340;2022-10-16T02:38:23;16.10;99.90
16578;DHT22;8401;52.528;13.340;2022-10-16T02:40:50;16.00;99.90
16578;DHT22;8401;52.528;13.340;2022-10-16T02:43:16;16.00;99.90
16578;DHT22;8401;52.528;13.340;2022-10-16T02:45:41;15.90;99.90
16578;DHT22;8401;52.528;13.340;2022-10-16T02:48:07;15.80;99.90
16578;DHT22;8401;52.528;13.340;2022-10-16T02:50:33;15.80;99.90
16578;DHT22;8401;52.528;13.340;2022-10-16T02:52:58;15.80;99.90
16578;DHT22;8401;52.528;13.340;2022-10-16T02:55:24;15.70;99.90
16578;DHT22;8401;52.528;13.340;2022-10-16T02:57:49;15.80;99.90
16578;DHT22;8401;52.528;13.340;2022-10-16T03:00:16;15.80;99.90
16578;DHT22;8401;52.528;13.340;2022-10-16T03:02:42;15.70;99.90
16578;DHT22;8401;52.528;13.340;2022-10-16T03:05:09;15.70;99.90
16578;DHT22;8401;52.528;13.340;2022-10-16T03:07:35;15.60;99.90
16578;DHT22;8401;52.528;13.340;2022-10-16T03:10:01;15.60;99.90
16578;DHT22;8401;52.528;13.340;2022-10-16T03:12:29;15.60;99.90
16578;DHT22;8401;52.528;13.340;2022-10-16T03:14:56;15.60;99.90
16578;DHT22;8401;52.528;13.340;2022-10-16T03:17:22;15.60;99.90
16578;DHT22;8401;52.528;13.340;2022-10-16T03:19:48;15.60;99.90
16578;DHT22;8401;52.528;13.340;2022-10-16T03:22:13;15.60;99.90
16578;DHT22;8401;52.528;13.340;2022-10-16T03:24:39;15.60;99.90
16578;DHT22;8401;52.528;13.340;2022-10-16T03:27:04;15.70;99.90
16578;DHT22;8401;52.528;13.340;2022-10-16T03:29:30;15.70;99.90
16578;DHT22;8401;52.528;13.340;2022-10-16T03:31:57;15.60;99.90
16578;DHT22;8401;52.528;13.340;2022-10-16T03:34:23;15.60;99.90
16578;DHT22;8401;52.528;13.340;2022-10-16T03:36:48;15.60;99.90
16578;DHT22;8401;52.528;13.340;2022-10-16T03:39:14;15.50;99.90
16578;DHT22;8401;52.528;13.340;2022-10-16T03:41:40;15.50;99.90
16578;DHT22;8401;52.528;13.340;2022-10-16T03:44:05;15.50;99.90
16578;DHT22;8401;52.528;13.340;2022-10-16T03:46:31;15.40;99.90
16578;DHT22;8401;52.528;13.340;2022-10-16T03:48:57;15.40;99.90
16578;DHT22;8401;52.528;13.340;2022-10-16T03:51:22;15.40;99.90
16578;DHT22;8401;52.528;13.340;2022-10-16T03:53:48;15.40;99.90
16578;DHT22;8401;52.528;13.340;2022-10-16T03:56:13;15.40;99.90
16578;DHT22;8401;52.528;13.340;2022-10-16T03:58:39;15.40;99.90
16578;DHT22;8401;52.528;13.340;2022-10-16T04:01:04;15.40;99.90
16578;DHT22;8401;52.528;13.340;2022-10-16T04:03:30;15.40;99.90
16578;DHT22;8401;52.528;13.340;2022-10-16T04:05:56;15.30;99.90
16578;DHT22;8401;52.528;13.340;2022-10-16T04:08:21;15.30;99.90
16578;DHT22;8401;52.528;13.340;2022-10-16T04:10:47;15.50;99.90
16578;DHT22;8401;52.528;13.340;2022-10-16T04:13:13;15.50;99.90
16578;DHT22;8401;52.528;13.340;2022-10-16T04:15:39;15.50;99.90
16578;DHT22;8401;52.528;13.340;2022-10-16T04:18:05;15.50;99.90
16578;DHT22;8401;52.528;13.340;2022-10-16T04:20:31;15.40;99.90
16578;DHT22;8401;52.528;13.340;2022-10-16T04:22:56;15.50;99.90
16578;DHT22;8401;52.528;13.340;2022-10-16T04:25:22;15.50;99.90
16578;DHT22;8401;52.528;13.340;2022-10-16T04:27:48;15.60;99.90
16578;DHT22;8401;52.528;13.340;2022-10-16T04:30:13;15.60;99.90
16578;DHT22;8401;52.528;13.340;2022-10-16T04:32:39;15.60;99.90
16578;DHT22;8401;52.528;13.340;2022-10-16T04:35:05;15.70;99.90
16578;DHT22;8401;52.528;13.340;2022-10-16T04:37:31;15.80;99.90
16578;DHT22;8401;52.528;13.340;2022-10-16T04:39:56;15.70;99.90
16578;DHT22;8401;52.528;13.340;2022-10-16T04:42:22;15.70;99.90
16578;DHT22;8401;52.528;13.340;2022-10-16T04:44:48;15.60;99.90
16578;DHT22;8401;52.528;13.340;2022-10-16T04:47:13;15.50;99.90
16578;DHT22;8401;52.528;13.340;2022-10-16T04:49:39;15.50;99.90
16578;DHT22;8401;52.528;13.340;2022-10-16T04:52:05;15.60;99.90
16578;DHT22;8401;52.528;13.340;2022-10-16T04:54:30;15.60;99.90
16578;DHT22;8401;52.528;13.340;2022-10-16T04:56:56;15.60;99.90
16578;DHT22;8401;52.528;13.340;2022-10-16T04:59:23;15.60;99.90
16578;DHT22;8401;52.528;13.340;2022-10-16T05:01:49;15.50;99.90
16578;DHT22;8401;52.528;13.340;2022-10-16T05:04:15;15.50;99.90
16578;DHT22;8401;52.528;13.340;2022-10-16T05:06:41;15.40;99.90
16578;DHT22;8401;52.528;13.340;2022-10-16T05:09:07;15.30;99.90
16578;DHT22;8401;52.528;13.340;2022-10-16T05:11:34;15.30;99.90
16578;DHT22;8401;52.528;13.340;2022-10-16T05:14:00;15.30;99.90
16578;DHT22;8401;52.528;13.340;2022-10-16T05:16:25;15.50;99.90
16578;DHT22;8401;52.528;13.340;2022-10-16T05:18:52;15.50;99.90
16578;DHT22;8401;52.528;13.340;2022-10-16T05:21:17;15.50;99.90
16578;DHT22;8401;52.528;13.340;2022-10-16T05:23:43;15.50;99.90
16578;DHT22;8401;52.528;13.340;2022-10-16T05:26:09;15.50;99.90
16578;DHT22;8401;52.528;13.340;2022-10-16T05:28:35;15.50;99.90
16578;DHT22;8401;52.528;13.340;2022-10-16T05:31:05;15.50;99.90
16578;DHT22;8401;52.528;13.340;2022-10-16T05:33:32;15.50;99.90
16578;DHT22;8401;52.528;13.340;2022-10-16T05:36:04;15.50;99.90
16578;DHT22;8401;52.528;13.340;2022-10-16T05:38:30;15.40;99.90
16578;DHT22;8401;52.528;13.340;2022-10-16T05:40:56;15.40;99.90
16578;DHT22;8401;52.528;13.340;2022-10-16T05:43:22;15.30;99.90
16578;DHT22;8401;52.528;13.340;2022-10-16T05:46:04;15.50;99.90
16578;DHT22;8401;52.528;13.340;2022-10-16T05:48:31;15.60;99.90
16578;DHT22;8401;52.528;13.340;2022-10-16T05:51:04;15.60;99.90
16578;DHT22;8401;52.528;13.340;2022-10-16T05:53:33;15.50;99.90
16578;DHT22;8401;52.528;13.340;2022-10-16T05:55:59;15.50;99.90
16578;DHT22;8401;52.528;13.340;2022-10-16T05:58:35;15.50;99.90
16578;DHT22;8401;52.528;13.340;2022-10-16T06:01:12;15.60;99.90
16578;DHT22;8401;52.528;13.340;2022-10-16T06:03:39;15.50;99.90
16578;DHT22;8401;52.528;13.340;2022-10-16T06:06:12;15.40;99.90
16578;DHT22;8401;52.528;13.340;2022-10-16T06:08:39;15.40;99.90
16578;DHT22;8401;52.528;13.340;2022-10-16T06:11:08;15.30;99.90
16578;DHT22;8401;52.528;13.340;2022-10-16T06:13:33;15.20;99.90
16578;DHT22;8401;52.528;13.340;2022-10-16T06:16:00;15.30;99.90
16578;DHT22;8401;52.528;13.340;2022-10-16T06:18:27;15.50;99.90
16578;DHT22;8401;52.528;13.340;2022-10-16T06:20:53;15.50;99.90
16578;DHT22;8401;52.528;13.340;2022-10-16T06:23:19;15.50;99.90
16578;DHT22;8401;52.528;13.340;2022-10-16T06:25:45;15.60;99.90
16578;DHT22;8401;52.528;13.340;2022-10-16T06:28:10;15.70;99.90
16578;DHT22;8401;52.528;13.340;2022-10-16T06:30:36;15.80;99.90
16578;DHT22;8401;52.528;13.340;2022-10-16T06:33:01;15.60;99.90
16578;DHT22;8401;52.528;13.340;2022-10-16T06:35:27;15.80;99.90
16578;DHT22;8401;52.528;13.340;2022-10-16T06:37:54;15.80;99.90
16578;DHT22;8401;52.528;13.340;2022-10-16T06:40:20;15.70;99.90
16578;DHT22;8401;52.528;13.340;2022-10-16T06:42:45;15.90;99.90
16578;DHT22;8401;52.528;13.340;2022-10-16T06:45:11;15.80;99.90
16578;DHT22;8401;52.528;13.340;2022-10-16T06:47:37;15.90;99.90
16578;DHT22;8401;52.528;13.340;2022-10-16T06:50:03;15.90;99.90
16578;DHT22;8401;52.528;13.340;2022-10-16T06:52:29;15.90;99.90
16578;DHT22;8401;52.528;13.340;2022-10-16T06:54:55;16.00;99.90
16578;DHT22;8401;52.528;13.340;2022-10-16T06:57:20;16.00;99.90
16578;DHT22;8401;52.528;13.340;2022-10-16T06:59:46;16.00;99.90
16578;DHT22;8401;52.528;13.340;2022-10-16T07:02:11;16.00;99.90
16578;DHT22;8401;52.528;13.340;2022-10-16T07:04:37;16.10;99.90
16578;DHT22;8401;52.528;13.340;2022-10-16T07:07:02;16.20;99.90
16578;DHT22;8401;52.528;13.340;2022-10-16T07:09:28;16.30;99.90
16578;DHT22;8401;52.528;13.340;2022-10-16T07:11:54;16.10;99.90
16578;DHT22;8401;52.528;13.340;2022-10-16T07:14:21;16.30;99.90
16578;DHT22;8401;52.528;13.340;2022-10-16T07:16:47;16.40;99.90
16578;DHT22;8401;52.528;13.340;2022-10-16T07:19:13;16.50;99.90
16578;DHT22;8401;52.528;13.340;2022-10-16T07:21:41;16.60;99.90
16578;DHT22;8401;52.528;13.340;2022-10-16T07:24:11;16.60;99.90
16578;DHT22;8401;52.528;13.340;2022-10-16T07:26:38;16.50;99.90
16578;DHT22;8401;52.528;13.340;2022-10-16T07:29:12;16.50;99.90
16578;DHT22;8401;52.528;13.340;2022-10-16T07:31:38;16.60;99.90
16578;DHT22;8401;52.528;13.340;2022-10-16T07:34:04;16.70;99.90
16578;DHT22;8401;52.528;13.340;2022-10-16T07:36:29;16.70;99.90
16578;DHT22;8401;52.528;13.340;2022-10-16T07:38:55;16.70;99.90
16578;DHT22;8401;52.528;13.340;2022-10-16T07:41:21;16.90;99.90
16578;DHT22;8401;52.528;13.340;2022-10-16T07:43:48;16.90;99.90
16578;DHT22;8401;52.528;13.340;2022-10-16T07:46:14;16.90;99.90
16578;DHT22;8401;52.528;13.340;2022-10-16T07:48:40;16.80;99.90
16578;DHT22;8401;52.528;13.340;2022-10-16T07:51:07;16.90;99.90
16578;DHT22;8401;52.528;13.340;2022-10-16T07:53:33;16.90;99.90
16578;DHT22;8401;52.528;13.340;2022-10-16T07:56:00;17.00;99.90
16578;DHT22;8401;52.528;13.340;2022-10-16T07:58:27;17.10;96.60
16578;DHT22;8401;52.528;13.340;2022-10-16T08:00:53;17.00;99.90
16578;DHT22;8401;52.528;13.340;2022-10-16T08:03:18;17.00;99.90
16578;DHT22;8401;52.528;13.340;2022-10-16T08:05:44;17.00;99.90
16578;DHT22;8401;52.528;13.340;2022-10-16T08:08:13;16.90;99.90
16578;DHT22;8401;52.528;13.340;2022-10-16T08:10:39;17.00;99.90
16578;DHT22;8401;52.528;13.340;2022-10-16T08:13:05;16.80;99.90
16578;DHT22;8401;52.528;13.340;2022-10-16T08:15:30;16.80;99.90
16578;DHT22;8401;52.528;13.340;2022-10-16T08:17:58;16.90;99.90
16578;DHT22;8401;52.528;13.340;2022-10-16T08:20:24;17.10;99.90
16578;DHT22;8401;52.528;13.340;2022-10-16T08:22:50;17.00;99.90
16578;DHT22;8401;52.528;13.340;2022-10-16T08:25:16;17.10;99.90
16578;DHT22;8401;52.528;13.340;2022-10-16T08:27:41;17.20;92.50
16578;DHT22;8401;52.528;13.340;2022-10-16T08:30:07;17.10;97.60
16578;DHT22;8401;52.528;13.340;2022-10-16T08:32:33;17.30;96.10
16578;DHT22;8401;52.528;13.340;2022-10-16T08:34:59;17.40;94.50
16578;DHT22;8401;52.528;13.340;2022-10-16T08:37:24;17.50;82.00
16578;DHT22;8401;52.528;13.340;2022-10-16T08:39:50;17.60;99.90
16578;DHT22;8401;52.528;13.340;2022-10-16T08:42:47;17.50;99.90
16578;DHT22;8401;52.528;13.340;2022-10-16T08:48:20;17.40;99.90
16578;DHT22;8401;52.528;13.340;2022-10-16T08:50:48;17.50;99.90
16578;DHT22;8401;52.528;13.340;2022-10-16T08:53:25;17.70;99.90
16578;DHT22;8401;52.528;13.340;2022-10-16T08:55:53;17.60;99.90
16578;DHT22;8401;52.528;13.340;2022-10-16T08:58:27;17.80;99.90
16578;DHT22;8401;52.528;13.340;2022-10-16T09:00:59;18.00;99.90
16578;DHT22;8401;52.528;13.340;2022-10-16T09:03:51;17.90;99.90
16578;DHT22;8401;52.528;13.340;2022-10-16T09:13:02;19.20;99.90
16578;DHT22;8401;52.528;13.340;2022-10-16T09:15:31;19.70;99.90
16578;DHT22;8401;52.528;13.340;2022-10-16T09:18:00;20.50;99.90
16578;DHT22;8401;52.528;13.340;2022-10-16T09:20:51;20.90;99.90
16578;DHT22;8401;52.528;13.340;2022-10-16T09:23:28;20.40;99.90
16578;DHT22;8401;52.528;13.340;2022-10-16T09:25:55;20.10;99.90
16578;DHT22;8401;52.528;13.340;2022-10-16T09:28:22;20.10;99.90
16578;DHT22;8401;52.528;13.340;2022-10-16T09:30:48;20.50;99.90
16578;DHT22;8401;52.528;13.340;2022-10-16T09:33:16;20.70;99.90
16578;DHT22;8401;52.528;13.340;2022-10-16T09:35:51;20.90;99.90
16578;DHT22;8401;52.528;13.340;2022-10-16T09:38:44;21.80;99.90
16578;DHT22;8401;52.528;13.340;2022-10-16T09:41:19;22.70;99.90
16578;DHT22;8401;52.528;13.340;2022-10-16T09:43:53;23.00;99.90
16578;DHT22;8401;52.528;13.340;2022-10-16T09:46:32;23.30;99.90
16578;DHT22;8401;52.528;13.340;2022-10-16T09:49:21;22.50;99.90
16578;DHT22;8401;52.528;13.340;2022-10-16T09:51:45;22.10;99.90
16578;DHT22;8401;52.528;13.340;2022-10-16T09:54:16;21.30;99.90
16578;DHT22;8401;52.528;13.340;2022-10-16T09:56:42;21.60;99.90
16578;DHT22;8401;52.528;13.340;2022-10-16T09:59:20;21.60;99.90
16578;DHT22;8401;52.528;13.340;2022-10-16T10:01:51;21.80;99.90
16578;DHT22;8401;52.528;13.340;2022-10-16T10:04:19;22.50;99.90
16578;DHT22;8401;52.528;13.340;2022-10-16T10:06:53;23.90;99.90
16578;DHT22;8401;52.528;13.340;2022-10-16T10:09:32;24.90;99.90
16578;DHT22;8401;52.528;13.340;2022-10-16T10:12:01;23.90;99.90
16578;DHT22;8401;52.528;13.340;2022-10-16T10:14:38;22.50;99.90
16578;DHT22;8401;52.528;13.340;2022-10-16T10:19:38;21.10;99.90
16578;DHT22;8401;52.528;13.340;2022-10-16T10:22:17;20.60;99.90
16578;DHT22;8401;52.528;13.340;2022-10-16T10:24:57;20.90;99.90
16578;DHT22;8401;52.528;13.340;2022-10-16T10:27:59;20.50;99.90
16578;DHT22;8401;52.528;13.340;2022-10-16T10:33:27;20.90;99.90
16578;DHT22;8401;52.528;13.340;2022-10-16T10:38:59;20.00;99.90
16578;DHT22;8401;52.528;13.340;2022-10-16T10:55:43;23.00;99.90
16578;DHT22;8401;52.528;13.340;2022-10-16T11:01:16;23.40;99.90
16578;DHT22;8401;52.528;13.340;2022-10-16T11:06:29;26.00;99.90
16578;DHT22;8401;52.528;13.340;2022-10-16T11:09:15;26.90;99.90
16578;DHT22;8401;52.528;13.340;2022-10-16T11:14:54;25.20;99.90
16578;DHT22;8401;52.528;13.340;2022-10-16T11:17:32;24.80;99.90
16578;DHT22;8401;52.528;13.340;2022-10-16T11:20:19;23.30;99.90
16578;DHT22;8401;52.528;13.340;2022-10-16T11:22:55;22.40;99.90
16578;DHT22;8401;52.528;13.340;2022-10-16T11:25:32;21.60;99.90
16578;DHT22;8401;52.528;13.340;2022-10-16T11:28:11;21.20;99.90
16578;DHT22;8401;52.528;13.340;2022-10-16T11:33:39;21.40;99.90
16578;DHT22;8401;52.528;13.340;2022-10-16T11:39:01;21.40;99.90
16578;DHT22;8401;52.528;13.340;2022-10-16T11:44:24;21.50;99.90
16578;DHT22;8401;52.528;13.340;2022-10-16T11:47:23;21.20;99.90
16578;DHT22;8401;52.528;13.340;2022-10-16T11:55:53;21.10;99.90
16578;DHT22;8401;52.528;13.340;2022-10-16T11:58:35;20.80;99.90
16578;DHT22;8401;52.528;13.340;2022-10-16T12:01:13;20.60;99.90
16578;DHT22;8401;52.528;13.340;2022-10-16T12:03:45;20.20;99.90
16578;DHT22;8401;52.528;13.340;2022-10-16T12:08:45;20.20;99.90
16578;DHT22;8401;52.528;13.340;2022-10-16T12:13:51;20.30;99.90
16578;DHT22;8401;52.528;13.340;2022-10-16T12:16:20;20.40;99.90
16578;DHT22;8401;52.528;13.340;2022-10-16T12:18:47;20.50;99.90
16578;DHT22;8401;52.528;13.340;2022-10-16T12:21:14;20.40;99.90
16578;DHT22;8401;52.528;13.340;2022-10-16T12:24:03;20.40;99.90
16578;DHT22;8401;52.528;13.340;2022-10-16T12:26:32;20.40;99.90
16578;DHT22;8401;52.528;13.340;2022-10-16T12:31:58;20.60;99.90
16578;DHT22;8401;52.528;13.340;2022-10-16T12:34:32;20.80;99.90
16578;DHT22;8401;52.528;13.340;2022-10-16T12:37:19;20.40;99.90
16578;DHT22;8401;52.528;13.340;2022-10-16T12:39:47;20.40;99.90
16578;DHT22;8401;52.528;13.340;2022-10-16T12:42:31;20.70;99.90
16578;DHT22;8401;52.528;13.340;2022-10-16T12:44:56;20.50;99.90
16578;DHT22;8401;52.528;13.340;2022-10-16T12:49:54;20.60;99.90
16578;DHT22;8401;52.528;13.340;2022-10-16T12:52:34;20.60;99.90
16578;DHT22;8401;52.528;13.340;2022-10-16T12:55:00;20.70;99.90
16578;DHT22;8401;52.528;13.340;2022-10-16T13:00:35;21.00;99.90
16578;DHT22;8401;52.528;13.340;2022-10-16T13:09:02;20.60;99.90
16578;DHT22;8401;52.528;13.340;2022-10-16T13:14:43;20.40;99.90
16578;DHT22;8401;52.528;13.340;2022-10-16T13:17:22;20.20;99.90
16578;DHT22;8401;52.528;13.340;2022-10-16T13:25:34;20.40;99.90
16578;DHT22;8401;52.528;13.340;2022-10-16T13:28:07;20.30;99.90
16578;DHT22;8401;52.528;13.340;2022-10-16T13:33:24;20.30;99.90
16578;DHT22;8401;52.528;13.340;2022-10-16T13:35:54;20.30;99.90
16578;DHT22;8401;52.528;13.340;2022-10-16T13:38:22;20.30;99.90
16578;DHT22;8401;52.528;13.340;2022-10-16T13:41:01;20.40;99.90
16578;DHT22;8401;52.528;13.340;2022-10-16T13:43:36;20.40;99.90
16578;DHT22;8401;52.528;13.340;2022-10-16T13:46:17;20.40;99.90
16578;DHT22;8401;52.528;13.340;2022-10-16T13:48:43;20.40;99.90
16578;DHT22;8401;52.528;13.340;2022-10-16T13:51:16;20.30;99.90
16578;DHT22;8401;52.528;13.340;2022-10-16T13:53:42;20.40;99.90
16578;DHT22;8401;52.528;13.340;2022-10-16T13:56:14;20.50;99.90
16578;DHT22;8401;52.528;13.340;2022-10-16T13:58:40;20.70;99.90
16578;DHT22;8401;52.528;13.340;2022-10-16T14:01:22;20.60;99.90
16578;DHT22;8401;52.528;13.340;2022-10-16T14:03:49;20.60;99.90
16578;DHT22;8401;52.528;13.340;2022-10-16T14:06:19;20.50;99.90
16578;DHT22;8401;52.528;13.340;2022-10-16T14:08:53;20.40;99.90
16578;DHT22;8401;52.528;13.340;2022-10-16T14:11:22;20.40;99.90
16578;DHT22;8401;52.528;13.340;2022-10-16T14:13:49;20.60;99.90
16578;DHT22;8401;52.528;13.340;2022-10-16T14:16:24;20.70;99.90
16578;DHT22;8401;52.528;13.340;2022-10-16T14:19:02;20.70;99.90
16578;DHT22;8401;52.528;13.340;2022-10-16T14:21:29;20.90;99.90
16578;DHT22;8401;52.528;13.340;2022-10-16T14:23:55;20.80;99.90
16578;DHT22;8401;52.528;13.340;2022-10-16T14:26:24;20.90;99.90
16578;DHT22;8401;52.528;13.340;2022-10-16T14:29:15;20.90;99.90
16578;DHT22;8401;52.528;13.340;2022-10-16T14:31:42;20.90;99.90
16578;DHT22;8401;52.528;13.340;2022-10-16T14:34:33;20.70;99.90
16578;DHT22;8401;52.528;13.340;2022-10-16T14:37:34;20.70;99.90
16578;DHT22;8401;52.528;13.340;2022-10-16T14:40:02;20.60;99.90
16578;DHT22;8401;52.528;13.340;2022-10-16T14:42:28;20.60;99.90
16578;DHT22;8401;52.528;13.340;2022-10-16T14:44:54;20.60;99.90
16578;DHT22;8401;52.528;13.340;2022-10-16T14:47:23;20.50;99.90
16578;DHT22;8401;52.528;13.340;2022-10-16T14:49:52;20.60;99.90
16578;DHT22;8401;52.528;13.340;2022-10-16T14:52:20;20.70;99.90
16578;DHT22;8401;52.528;13.340;2022-10-16T14:54:49;20.80;99.90
16578;DHT22;8401;52.528;13.340;2022-10-16T14:57:22;20.80;99.90
16578;DHT22;8401;52.528;13.340;2022-10-16T14:59:48;20.70;99.90
16578;DHT22;8401;52.528;13.340;2022-10-16T15:02:29;20.60;99.90
16578;DHT22;8401;52.528;13.340;2022-10-16T15:04:55;20.60;99.90
16578;DHT22;8401;52.528;13.340;2022-10-16T15:07:21;20.50;99.90
16578;DHT22;8401;52.528;13.340;2022-10-16T15:09:47;20.40;99.90
16578;DHT22;8401;52.528;13.340;2022-10-16T15:12:12;20.30;99.90
16578;DHT22;8401;52.528;13.340;2022-10-16T15:14:38;20.30;99.90
16578;DHT22;8401;52.528;13.340;2022-10-16T15:17:04;20.20;99.90
16578;DHT22;8401;52.528;13.340;2022-10-16T15:19:30;20.10;99.90
16578;DHT22;8401;52.528;13.340;2022-10-16T15:21:56;20.00;99.90
16578;DHT22;8401;52.528;13.340;2022-10-16T15:24:21;20.00;99.90
16578;DHT22;8401;52.528;13.340;2022-10-16T15:26:47;19.90;99.90
16578;DHT22;8401;52.528;13.340;2022-10-16T15:29:14;19.90;99.90
16578;DHT22;8401;52.528;13.340;2022-10-16T15:31:40;19.80;99.90
16578;DHT22;8401;52.528;13.340;2022-10-16T15:34:09;19.60;99.90
16578;DHT22;8401;52.528;13.340;2022-10-16T15:36:36;19.50;99.90
16578;DHT22;8401;52.528;13.340;2022-10-16T15:39:17;19.50;99.90
16578;DHT22;8401;52.528;13.340;2022-10-16T15:41:45;19.40;99.90
16578;DHT22;8401;52.528;13.340;2022-10-16T15:44:16;19.30;99.90
16578;DHT22;8401;52.528;13.340;2022-10-16T15:46:41;19.30;99.90
16578;DHT22;8401;52.528;13.340;2022-10-16T15:49:08;19.30;99.90
16578;DHT22;8401;52.528;13.340;2022-10-16T15:51:38;19.20;99.90
16578;DHT22;8401;52.528;13.340;2022-10-16T15:54:04;19.20;99.90
16578;DHT22;8401;52.528;13.340;2022-10-16T15:56:30;19.10;99.90
16578;DHT22;8401;52.528;13.340;2022-10-16T15:58:59;19.00;99.90
16578;DHT22;8401;52.528;13.340;2022-10-16T16:01:26;18.90;99.90
16578;DHT22;8401;52.528;13.340;2022-10-16T16:03:55;18.80;99.90
16578;DHT22;8401;52.528;13.340;2022-10-16T16:06:21;18.70;99.90
16578;DHT22;8401;52.528;13.340;2022-10-16T16:08:49;18.70;99.90
16578;DHT22;8401;52.528;13.340;2022-10-16T16:11:16;18.60;99.90
16578;DHT22;8401;52.528;13.340;2022-10-16T16:13:42;18.60;99.90
16578;DHT22;8401;52.528;13.340;2022-10-16T16:16:13;18.50;99.90
16578;DHT22;8401;52.528;13.340;2022-10-16T16:18:39;18.50;99.90
16578;DHT22;8401;52.528;13.340;2022-10-16T16:21:05;18.40;99.90
16578;DHT22;8401;52.528;13.340;2022-10-16T16:23:32;18.30;99.90
16578;DHT22;8401;52.528;13.340;2022-10-16T16:26:13;18.30;99.90
16578;DHT22;8401;52.528;13.340;2022-10-16T16:28:41;18.30;99.90
16578;DHT22;8401;52.528;13.340;2022-10-16T16:31:07;18.20;99.90
16578;DHT22;8401;52.528;13.340;2022-10-16T16:33:33;18.20;99.90
16578;DHT22;8401;52.528;13.340;2022-10-16T16:36:00;18.10;99.90
16578;DHT22;8401;52.528;13.340;2022-10-16T16:38:27;18.10;99.90
16578;DHT22;8401;52.528;13.340;2022-10-16T16:40:53;18.00;99.90
16578;DHT22;8401;52.528;13.340;2022-10-16T16:43:22;17.90;99.90
16578;DHT22;8401;52.528;13.340;2022-10-16T16:45:47;18.00;99.90
16578;DHT22;8401;52.528;13.340;2022-10-16T16:48:13;18.10;99.90
16578;DHT22;8401;52.528;13.340;2022-10-16T16:50:39;18.10;99.90
16578;DHT22;8401;52.528;13.340;2022-10-16T16:53:04;18.00;99.90
16578;DHT22;8401;52.528;13.340;2022-10-16T16:55:30;18.00;99.90
16578;DHT22;8401;52.528;13.340;2022-10-16T16:57:55;17.90;99.90
16578;DHT22;8401;52.528;13.340;2022-10-16T17:00:22;17.90;99.90
16578;DHT22;8401;52.528;13.340;2022-10-16T17:02:49;17.90;99.90
16578;DHT22;8401;52.528;13.340;2022-10-16T17:05:15;17.90;99.90
16578;DHT22;8401;52.528;13.340;2022-10-16T17:07:41;17.90;99.90
16578;DHT22;8401;52.528;13.340;2022-10-16T17:10:07;17.90;99.90
16578;DHT22;8401;52.528;13.340;2022-10-16T17:12:33;17.80;99.90
16578;DHT22;8401;52.528;13.340;2022-10-16T17:14:59;17.70;99.90
16578;DHT22;8401;52.528;13.340;2022-10-16T17:17:24;17.50;99.90
16578;DHT22;8401;52.528;13.340;2022-10-16T17:19:50;17.30;99.90
16578;DHT22;8401;52.528;13.340;2022-10-16T17:22:16;17.30;99.90
16578;DHT22;8401;52.528;13.340;2022-10-16T17:24:42;17.20;99.90